createdAt,value
2023-04-03T00:01:58.561Z,65.42
2023-04-03T00:04:41.012Z,65.13
2023-04-03T00:07:13.676Z,65.21
2023-04-03T00:09:45.634Z,65.21
2023-04-03T00:12:17.714Z,65.16
2023-04-03T00:14:50.218Z,65.08
2023-04-03T00:17:22.184Z,65.02
2023-04-03T00:19:54.193Z,65.18
2023-04-03T00:22:27.828Z,65.27
2023-04-03T00:24:59.737Z,65.12
2023-04-03T00:27:32.841Z,65.30
2023-04-03T00:30:05.739Z,65.42
2023-04-03T00:32:37.932Z,65.06
2023-04-03T00:35:10.800Z,65.06
2023-04-03T00:37:43.977Z,65.03
2023-04-03T00:40:17.919Z,65.23
2023-04-03T00:42:52.250Z,65.07
2023-04-03T00:45:32.783Z,65.19
2023-04-03T00:48:08.154Z,64.93
2023-04-03T00:50:44.096Z,64.66
2023-04-03T00:53:21.680Z,64.64
2023-04-03T00:55:57.809Z,64.88
2023-04-03T00:58:32.743Z,64.62
2023-04-03T01:01:07.768Z,64.78
2023-04-03T01:03:39.913Z,64.63
2023-04-03T01:06:12.154Z,64.75
2023-04-03T01:08:45.118Z,64.80
2023-04-03T01:11:17.247Z,64.68
2023-04-03T01:13:50.546Z,64.63
2023-04-03T01:16:22.909Z,64.59
2023-04-03T01:18:55.158Z,64.16
2023-04-03T01:21:44.713Z,64.09
2023-04-03T01:24:22.746Z,63.70
2023-04-03T01:26:54.841Z,63.19
2023-04-03T01:29:26.998Z,63.55
2023-04-03T01:32:01.982Z,63.49
2023-04-03T01:34:34.988Z,63.46
2023-04-03T01:37:07.453Z,63.64
2023-04-03T01:39:39.493Z,63.86
2023-04-03T01:42:12.578Z,64.02
2023-04-03T01:44:46.967Z,64.37
2023-04-03T01:47:18.996Z,64.03
2023-04-03T01:49:51.169Z,64.27
2023-04-03T01:52:23.295Z,64.37
2023-04-03T01:54:56.096Z,64.55
2023-04-03T01:57:28.165Z,64.29
2023-04-03T02:00:00.495Z,64.34
2023-04-03T02:02:33.337Z,64.25
2023-04-03T02:05:05.597Z,64.32
2023-04-03T02:07:37.676Z,64.42
2023-04-03T02:10:09.889Z,64.16
2023-04-03T02:12:42.250Z,64.50
2023-04-03T02:15:14.465Z,64.52
2023-04-03T02:17:46.593Z,64.41
2023-04-03T02:20:19.207Z,64.35
2023-04-03T02:22:51.446Z,64.36
2023-04-03T02:25:23.531Z,64.38
2023-04-03T02:27:56.018Z,64.45
2023-04-03T02:30:28.845Z,64.73
2023-04-03T02:33:01.087Z,64.89
2023-04-03T02:35:33.464Z,64.82
2023-04-03T02:38:06.182Z,65.01
2023-04-03T02:40:38.795Z,65.02
2023-04-03T02:43:11.518Z,65.02
2023-04-03T02:45:43.704Z,64.91
2023-04-03T02:48:17.876Z,65.27
2023-04-03T02:50:50.570Z,65.17
2023-04-03T02:53:22.652Z,65.14
2023-04-03T02:55:55.221Z,64.72
2023-04-03T02:58:27.210Z,64.76
2023-04-03T03:00:59.641Z,64.83
2023-04-03T03:03:31.964Z,64.83
2023-04-03T03:06:07.194Z,64.65
2023-04-03T03:08:39.747Z,64.88
2023-04-03T03:11:12.286Z,64.79
2023-04-03T03:13:44.253Z,64.97
2023-04-03T03:16:16.820Z,65.06
2023-04-03T03:18:49.137Z,64.73
2023-04-03T03:21:21.370Z,64.76
2023-04-03T03:23:53.367Z,64.49
2023-04-03T03:26:26.179Z,64.60
2023-04-03T03:28:58.428Z,64.68
2023-04-03T03:31:31.348Z,64.37
2023-04-03T03:34:03.571Z,64.26
2023-04-03T03:36:36.024Z,63.92
2023-04-03T03:39:08.625Z,63.67
2023-04-03T03:41:40.670Z,63.36
2023-04-03T03:44:15.294Z,62.95
2023-04-03T03:46:48.070Z,62.62
2023-04-03T03:49:20.581Z,62.00
2023-04-03T03:51:53.060Z,61.89
2023-04-03T03:54:25.651Z,61.52
2023-04-03T03:56:57.949Z,61.12
2023-04-03T03:59:30.417Z,60.89
2023-04-03T04:02:02.527Z,60.57
2023-04-03T04:04:34.568Z,60.37
2023-04-03T04:07:06.637Z,60.02
2023-04-03T04:09:39.575Z,59.74
2023-04-03T04:12:13.444Z,60.02
2023-04-03T04:14:47.158Z,59.94
2023-04-03T04:17:21.354Z,60.08
2023-04-03T04:19:55.045Z,59.42
2023-04-03T04:22:27.970Z,59.05
2023-04-03T04:25:00.501Z,59.33
2023-04-03T04:27:33.040Z,59.17
2023-04-03T04:30:07.406Z,58.88
2023-04-03T04:32:40.051Z,59.37
2023-04-03T04:35:14.744Z,59.31
2023-04-03T04:37:47.418Z,59.36
2023-04-03T04:40:19.637Z,58.76
2023-04-03T04:42:52.101Z,58.37
2023-04-03T04:45:25.381Z,58.23
2023-04-03T04:48:00.457Z,57.91
2023-04-03T04:50:32.709Z,57.99
2023-04-03T04:53:05.490Z,56.88
2023-04-03T04:55:38.296Z,56.62
2023-04-03T04:58:10.602Z,56.40
2023-04-03T05:00:43.390Z,56.45
2023-04-03T05:03:15.805Z,55.96
2023-04-03T05:05:48.723Z,56.27
2023-04-03T05:08:20.883Z,55.65
2023-04-03T05:10:56.105Z,55.38
2023-04-03T05:13:30.017Z,55.11
2023-04-03T05:16:02.262Z,54.53
2023-04-03T05:18:34.532Z,54.27
2023-04-03T05:21:08.280Z,54.09
2023-04-03T05:23:40.559Z,53.52
2023-04-03T05:26:13.868Z,52.92
2023-04-03T05:28:47.058Z,52.33
2023-04-03T05:31:20.429Z,52.07
2023-04-03T05:33:55.526Z,52.09
2023-04-03T05:36:27.982Z,52.05
2023-04-03T05:39:01.684Z,52.15
2023-04-03T05:41:34.305Z,52.01
2023-04-03T05:44:06.321Z,51.47
2023-04-03T05:46:38.479Z,51.66
2023-04-03T05:49:11.842Z,51.24
2023-04-03T05:51:46.241Z,51.45
2023-04-03T05:54:26.251Z,51.37
2023-04-03T05:57:00.000Z,50.88
2023-04-03T05:59:32.462Z,51.00
2023-04-03T06:02:05.221Z,51.03
2023-04-03T06:04:37.738Z,51.10
2023-04-03T06:07:15.259Z,51.08
2023-04-03T06:09:47.945Z,51.16
2023-04-03T06:12:22.269Z,50.98
2023-04-03T06:14:54.392Z,50.45
2023-04-03T06:17:28.187Z,50.32
2023-04-03T06:20:00.693Z,50.74
2023-04-03T06:22:33.324Z,51.14
2023-04-03T06:25:06.423Z,51.25
2023-04-03T06:27:38.517Z,51.41
2023-04-03T06:30:10.765Z,50.93
2023-04-03T06:32:44.023Z,51.27
2023-04-03T06:35:16.302Z,51.08
2023-04-03T06:37:48.521Z,50.89
2023-04-03T06:40:27.479Z,50.65
2023-04-03T06:42:59.774Z,50.04
2023-04-03T06:45:32.369Z,49.76
2023-04-03T06:48:04.709Z,49.32
2023-04-03T06:50:36.927Z,49.22
2023-04-03T06:53:09.222Z,48.89
2023-04-03T06:55:41.359Z,48.41
2023-04-03T06:58:13.953Z,48.25
2023-04-03T07:00:46.263Z,47.81
2023-04-03T07:03:18.564Z,47.58
2023-04-03T07:05:51.072Z,47.36
2023-04-03T07:08:24.388Z,46.58
2023-04-03T07:10:56.836Z,46.53
2023-04-03T07:13:29.252Z,46.82
2023-04-03T07:16:01.676Z,46.06
2023-04-03T07:18:34.917Z,45.62
2023-04-03T07:21:07.768Z,45.70
2023-04-03T07:23:40.345Z,45.14
2023-04-03T07:26:12.603Z,44.74
2023-04-03T07:28:45.544Z,44.39
2023-04-03T07:31:19.859Z,43.75
2023-04-03T07:33:53.941Z,43.59
2023-04-03T07:36:26.606Z,45.64
2023-04-03T07:38:59.072Z,42.72
2023-04-03T07:41:31.715Z,41.07
2023-04-03T07:44:04.140Z,40.55
2023-04-03T07:46:36.570Z,39.72
2023-04-03T07:49:09.170Z,39.98
2023-04-03T07:51:41.803Z,39.92
2023-04-03T07:54:13.894Z,39.16
2023-04-03T07:56:46.399Z,39.38
2023-04-03T07:59:18.570Z,39.02
2023-04-03T08:01:50.866Z,38.53
2023-04-03T08:04:23.034Z,38.50
2023-04-03T08:06:55.502Z,38.97
2023-04-03T08:09:27.911Z,38.58
2023-04-03T08:12:00.992Z,38.48
2023-04-03T08:14:36.422Z,38.43
2023-04-03T08:17:09.948Z,39.04
2023-04-03T08:19:42.659Z,38.49
2023-04-03T08:22:14.643Z,38.20
2023-04-03T08:24:58.638Z,37.38
2023-04-03T08:27:21.061Z,37.37
2023-04-03T08:29:53.417Z,36.38
2023-04-03T08:32:25.941Z,37.24
2023-04-03T08:34:58.577Z,37.21
2023-04-03T08:37:30.711Z,37.06
2023-04-03T08:40:02.898Z,36.85
2023-04-03T08:42:38.169Z,36.73
2023-04-03T08:45:19.670Z,36.55
2023-04-03T08:48:08.750Z,36.61
2023-04-03T08:50:43.299Z,36.72
2023-04-03T08:53:16.202Z,37.09
2023-04-03T08:55:52.848Z,38.82
2023-04-03T08:58:30.348Z,37.76
2023-04-03T09:01:08.479Z,36.42
2023-04-03T09:03:43.008Z,36.49
2023-04-03T09:06:31.873Z,36.40
2023-04-03T09:09:07.147Z,36.13
2023-04-03T09:11:57.196Z,35.98
2023-04-03T09:14:33.634Z,35.74
2023-04-03T09:17:08.313Z,35.86
2023-04-03T09:19:52.376Z,35.86
2023-04-03T09:22:27.256Z,35.05
2023-04-03T09:25:09.234Z,34.49
2023-04-03T09:27:42.364Z,34.62
2023-04-03T09:30:17.617Z,33.68
2023-04-03T09:32:51.974Z,33.49
2023-04-03T09:35:44.913Z,33.77
2023-04-03T09:38:16.124Z,33.46
2023-04-03T09:40:50.922Z,33.59
2023-04-03T09:43:31.862Z,34.00
2023-04-03T09:46:22.332Z,33.94
2023-04-03T09:49:08.136Z,34.40
2023-04-03T09:51:34.223Z,34.55
2023-04-03T09:54:30.216Z,34.30
2023-04-03T09:57:14.422Z,34.29
2023-04-03T09:59:52.686Z,34.48
2023-04-03T10:02:36.744Z,35.19
2023-04-03T10:05:30.287Z,35.32
2023-04-03T10:08:14.426Z,35.40
2023-04-03T10:10:51.991Z,35.37
2023-04-03T10:13:24.200Z,35.38
2023-04-03T10:16:07.815Z,35.70
2023-04-03T10:18:49.249Z,35.29
2023-04-03T10:21:33.660Z,34.96
2023-04-03T10:24:11.828Z,34.69
2023-04-03T10:27:03.404Z,34.78
2023-04-03T10:29:44.077Z,34.51
2023-04-03T10:32:22.536Z,34.54
2023-04-03T10:35:05.148Z,34.28
2023-04-03T10:37:38.694Z,34.38
2023-04-03T10:40:44.979Z,33.74
2023-04-03T10:43:36.750Z,34.10
2023-04-03T10:46:20.643Z,33.89
2023-04-03T10:49:08.637Z,33.79
2023-04-03T10:51:45.436Z,33.71
2023-04-03T10:54:40.927Z,34.23
2023-04-03T10:57:14.528Z,34.27
2023-04-03T10:59:55.669Z,33.62
2023-04-03T11:02:43.526Z,33.29
2023-04-03T11:05:33.802Z,33.20
2023-04-03T11:08:09.059Z,33.20
2023-04-03T11:10:46.743Z,33.01
2023-04-03T11:13:30.962Z,32.66
2023-04-03T11:16:04.888Z,32.63
2023-04-03T11:18:48.738Z,32.33
2023-04-03T11:21:23.628Z,32.10
2023-04-03T11:23:57.879Z,32.33
2023-04-03T11:26:33.675Z,32.52
2023-04-03T11:29:08.870Z,32.65
2023-04-03T11:31:56.159Z,32.35
2023-04-03T11:34:38.467Z,34.65
2023-04-03T11:37:38.044Z,32.86
2023-04-03T11:40:27.767Z,33.07
2023-04-03T11:43:02.782Z,32.54
2023-04-03T11:45:41.345Z,32.66
2023-04-03T11:48:34.832Z,32.45
2023-04-03T11:51:19.089Z,32.61
2023-04-03T11:53:51.469Z,32.91
2023-04-03T11:56:29.385Z,32.99
2023-04-03T11:59:16.591Z,33.42
2023-04-03T12:02:01.079Z,33.28
2023-04-03T12:04:33.375Z,32.92
2023-04-03T12:07:17.837Z,33.42
2023-04-03T12:09:52.880Z,33.66
2023-04-03T12:12:39.812Z,33.43
2023-04-03T12:15:23.571Z,33.75
2023-04-03T12:17:56.117Z,34.09
2023-04-03T12:20:50.490Z,34.52
2023-04-03T12:23:27.916Z,34.83
2023-04-03T12:26:24.458Z,35.18
2023-04-03T12:28:58.423Z,35.75
2023-04-03T12:31:33.279Z,35.87
2023-04-03T12:34:32.424Z,36.38
2023-04-03T12:37:12.984Z,36.67
2023-04-03T12:40:12.057Z,37.40
2023-04-03T12:42:46.978Z,37.74
2023-04-03T12:45:27.216Z,38.18
2023-04-03T12:47:59.347Z,38.90
2023-04-03T12:50:37.265Z,39.12
2023-04-03T12:53:15.060Z,39.64
2023-04-03T12:55:47.597Z,39.88
2023-04-03T12:58:28.910Z,40.25
2023-04-03T13:01:09.878Z,40.09
2023-04-03T13:03:45.311Z,39.58
2023-04-03T13:06:32.173Z,40.24
2023-04-03T13:09:05.245Z,40.31
2023-04-03T13:11:41.360Z,40.42
2023-04-03T13:14:22.291Z,40.64
2023-04-03T13:17:16.007Z,40.69
2023-04-03T13:19:48.436Z,40.89
2023-04-03T13:22:29.172Z,41.26
2023-04-03T13:25:04.233Z,40.72
2023-04-03T13:27:36.434Z,41.30
2023-04-03T13:30:11.277Z,41.74
2023-04-03T13:32:46.191Z,42.64
2023-04-03T13:35:30.729Z,42.64
2023-04-03T13:38:06.308Z,43.14
2023-04-03T13:43:32.920Z,43.35
2023-04-03T13:46:13.677Z,43.81
2023-04-03T13:48:48.251Z,43.81
2023-04-03T13:51:28.876Z,44.38
2023-04-03T13:54:03.477Z,45.49
2023-04-03T13:56:39.259Z,45.72
2023-04-03T13:59:20.094Z,45.44
2023-04-03T14:01:58.175Z,45.44
2023-04-03T14:04:35.872Z,45.85
2023-04-03T14:07:08.087Z,46.17
2023-04-03T14:09:40.337Z,45.93
2023-04-03T14:12:30.244Z,47.28
2023-04-03T14:14:49.661Z,48.07
2023-04-03T14:17:25.614Z,48.07
2023-04-03T14:19:59.831Z,49.80
2023-04-03T14:22:35.888Z,51.11
2023-04-03T14:25:08.555Z,51.89
2023-04-03T14:27:43.816Z,50.93
2023-04-03T14:30:24.691Z,50.77
2023-04-03T14:32:58.006Z,50.58
2023-04-03T14:35:30.546Z,51.35
2023-04-03T14:38:02.866Z,53.13
2023-04-03T14:40:34.950Z,52.42
2023-04-03T14:43:10.289Z,52.45
2023-04-03T14:45:42.831Z,53.04
2023-04-03T14:48:26.649Z,52.28
2023-04-03T14:51:05.843Z,51.21
2023-04-03T14:53:38.745Z,51.05
2023-04-03T14:56:16.288Z,50.84
2023-04-03T14:58:50.139Z,51.43
2023-04-03T15:01:22.569Z,51.62
2023-04-03T15:03:55.051Z,51.56
2023-04-03T15:06:28.155Z,51.94
2023-04-03T15:09:00.277Z,52.50
2023-04-03T15:11:32.437Z,53.24
2023-04-03T15:14:04.502Z,52.88
2023-04-03T15:16:36.523Z,52.28
2023-04-03T15:19:09.028Z,51.77
2023-04-03T15:21:41.477Z,51.89
2023-04-03T15:24:14.106Z,52.26
2023-04-03T15:26:46.457Z,52.06
2023-04-03T15:29:18.758Z,52.47
2023-04-03T15:31:52.714Z,52.10
2023-04-03T15:34:24.875Z,52.02
2023-04-03T15:36:56.904Z,52.07
2023-04-03T15:39:30.018Z,52.45
2023-04-03T15:42:03.735Z,52.08
2023-04-03T15:44:37.421Z,51.97
2023-04-03T15:47:09.925Z,52.64
2023-04-03T15:49:42.228Z,52.08
2023-04-03T15:52:14.458Z,52.83
2023-04-03T15:54:46.723Z,52.66
2023-04-03T15:57:19.022Z,53.59
2023-04-03T15:59:51.444Z,53.09
2023-04-03T16:02:23.742Z,53.01
2023-04-03T16:04:57.328Z,53.27
2023-04-03T16:07:29.360Z,53.66
2023-04-03T16:10:01.582Z,53.70
2023-04-03T16:12:33.627Z,54.23
2023-04-03T16:15:06.910Z,54.56
2023-04-03T16:17:40.626Z,54.69
2023-04-03T16:20:14.824Z,54.81
2023-04-03T16:22:47.613Z,54.96
2023-04-03T16:25:20.330Z,54.61
2023-04-03T16:27:52.372Z,54.64
2023-04-03T16:30:24.331Z,55.07
2023-04-03T16:32:56.601Z,54.59
2023-04-03T16:35:28.907Z,55.02
2023-04-03T16:38:01.074Z,55.13
2023-04-03T16:40:34.882Z,54.21
2023-04-03T16:43:07.038Z,54.66
2023-04-03T16:45:39.378Z,54.29
2023-04-03T16:48:11.685Z,54.55
2023-04-03T16:50:43.936Z,54.72
2023-04-03T16:53:16.433Z,54.35
2023-04-03T16:55:48.518Z,54.38
2023-04-03T16:58:23.425Z,54.17
2023-04-03T17:00:55.070Z,54.06
2023-04-03T17:03:29.211Z,54.79
2023-04-03T17:06:01.336Z,55.26
2023-04-03T17:08:33.536Z,55.39
2023-04-03T17:11:05.615Z,56.80
2023-04-03T17:13:38.235Z,56.80
2023-04-03T17:16:13.022Z,55.94
2023-04-03T17:18:46.212Z,55.09
2023-04-03T17:21:19.053Z,55.51
2023-04-03T17:23:59.951Z,55.40
2023-04-03T17:26:32.076Z,55.83
2023-04-03T17:29:04.904Z,56.04
2023-04-03T17:31:37.919Z,55.71
2023-04-03T17:34:11.773Z,56.36
2023-04-03T17:36:44.308Z,56.87
2023-04-03T17:39:16.408Z,56.85
2023-04-03T17:41:49.735Z,58.19
2023-04-03T17:44:22.229Z,58.26
2023-04-03T17:46:54.681Z,58.54
2023-04-03T17:49:27.139Z,59.05
2023-04-03T17:51:59.476Z,60.41
2023-04-03T17:54:31.663Z,61.72
2023-04-03T17:57:04.709Z,62.24
2023-04-03T17:59:37.398Z,63.06
2023-04-03T18:02:09.613Z,64.07
2023-04-03T18:04:41.659Z,63.81
2023-04-03T18:07:13.901Z,64.36
2023-04-03T18:09:48.705Z,65.81
2023-04-03T18:12:21.258Z,66.09
2023-04-03T18:14:53.555Z,66.07
2023-04-03T18:17:26.979Z,66.01
2023-04-03T18:19:59.673Z,66.36
2023-04-03T18:22:33.465Z,66.26
2023-04-03T18:25:06.337Z,67.28
2023-04-03T18:27:38.694Z,67.54
2023-04-03T18:30:16.697Z,67.65
2023-04-03T18:32:49.221Z,67.58
2023-04-03T18:35:21.460Z,67.38
2023-04-03T18:37:53.450Z,67.74
2023-04-03T18:40:25.487Z,67.75
2023-04-03T18:42:57.624Z,67.97
2023-04-03T18:45:30.333Z,67.58
2023-04-03T18:48:02.801Z,67.73
2023-04-03T18:50:35.600Z,67.51
2023-04-03T18:53:07.887Z,67.29
2023-04-03T18:55:40.161Z,67.00
2023-04-03T18:58:12.458Z,67.24
2023-04-03T19:00:44.622Z,67.47
2023-04-03T19:03:16.994Z,67.77
2023-04-03T19:05:49.360Z,68.41
2023-04-03T19:08:21.407Z,68.20
2023-04-03T19:10:53.640Z,68.46
2023-04-03T19:13:27.032Z,68.75
2023-04-03T19:16:00.140Z,69.02
2023-04-03T19:18:32.225Z,69.04
2023-04-03T19:21:04.565Z,69.27
2023-04-03T19:23:36.806Z,69.57
2023-04-03T19:26:09.827Z,70.23
2023-04-03T19:28:42.447Z,70.81
2023-04-03T19:31:22.594Z,70.39
2023-04-03T19:33:54.752Z,71.35
2023-04-03T19:36:26.942Z,71.42
2023-04-03T19:38:58.954Z,71.87
2023-04-03T19:41:34.024Z,72.34
2023-04-03T19:44:07.590Z,72.45
2023-04-03T19:46:39.728Z,71.99
2023-04-03T19:49:11.810Z,71.96
2023-04-03T19:51:43.755Z,72.40
2023-04-03T19:54:15.838Z,72.03
2023-04-03T19:56:48.125Z,72.22
2023-04-03T19:59:20.388Z,72.03
2023-04-03T20:01:53.043Z,72.97
2023-04-03T20:04:25.404Z,73.53
2023-04-03T20:06:57.779Z,74.08
2023-04-03T20:09:29.818Z,74.30
2023-04-03T20:12:02.427Z,74.03
2023-04-03T20:14:35.678Z,74.17
2023-04-03T20:17:07.684Z,74.37
2023-04-03T20:19:39.784Z,74.09
2023-04-03T20:22:11.784Z,74.14
2023-04-03T20:24:43.947Z,73.86
2023-04-03T20:27:16.769Z,74.05
2023-04-03T20:29:49.405Z,73.09
2023-04-03T20:32:21.818Z,73.19
2023-04-03T20:35:03.436Z,73.13
2023-04-03T20:37:28.393Z,72.74
2023-04-03T20:40:00.516Z,72.70
2023-04-03T20:42:33.665Z,72.64
2023-04-03T20:45:08.040Z,72.74
2023-04-03T20:47:40.429Z,72.68
2023-04-03T20:50:13.073Z,72.77
2023-04-03T20:52:45.276Z,72.94
2023-04-03T20:55:19.042Z,72.82
2023-04-03T20:57:54.612Z,72.31
2023-04-03T21:00:25.356Z,71.84
2023-04-03T21:02:59.675Z,72.41
2023-04-03T21:05:33.456Z,72.04
2023-04-03T21:08:41.029Z,72.25
2023-04-03T21:11:48.853Z,72.33
2023-04-03T21:14:56.805Z,72.18
2023-04-03T21:17:28.589Z,71.90
2023-04-03T21:20:00.541Z,71.58
2023-04-03T21:22:32.909Z,71.56
2023-04-03T21:25:05.075Z,72.06
2023-04-03T21:27:37.817Z,71.80
2023-04-03T21:30:10.649Z,71.91
2023-04-03T21:32:42.887Z,72.48
2023-04-03T21:35:15.100Z,72.44
2023-04-03T21:37:47.040Z,72.43
2023-04-03T21:40:19.031Z,72.32
2023-04-03T21:42:56.321Z,72.69
2023-04-03T21:45:28.568Z,72.35
2023-04-03T21:48:02.164Z,72.57
2023-04-03T21:50:34.708Z,72.70
2023-04-03T21:53:07.467Z,72.90
2023-04-03T21:55:39.768Z,72.99
2023-04-03T21:58:11.736Z,72.80
2023-04-03T22:00:43.844Z,73.04
2023-04-03T22:03:21.973Z,73.42
2023-04-03T22:05:54.015Z,73.61
2023-04-03T22:08:26.420Z,73.84
2023-04-03T22:11:14.755Z,73.68
2023-04-03T22:13:46.879Z,73.83
2023-04-03T22:16:19.124Z,73.94
2023-04-03T22:18:52.888Z,74.18
2023-04-03T22:21:25.028Z,74.02
2023-04-03T22:23:56.987Z,74.08
2023-04-03T22:26:29.033Z,74.18
2023-04-03T22:29:01.494Z,74.25
2023-04-03T22:31:34.836Z,74.37
2023-04-03T22:34:07.104Z,74.34
2023-04-03T22:36:39.215Z,74.37
2023-04-03T22:39:12.383Z,74.24
2023-04-03T22:41:45.578Z,74.65
2023-04-03T22:44:18.371Z,74.67
2023-04-03T22:46:52.174Z,74.80
2023-04-03T22:49:24.551Z,74.83
2023-04-03T22:51:56.613Z,74.86
2023-04-03T22:54:28.680Z,74.96
2023-04-03T22:57:00.767Z,74.92
2023-04-03T22:59:32.901Z,75.05
2023-04-03T23:02:05.110Z,75.37
2023-04-03T23:04:38.161Z,75.51
2023-04-03T23:07:10.268Z,75.79
2023-04-03T23:09:42.506Z,76.07
2023-04-03T23:12:14.553Z,76.30
2023-04-03T23:14:46.612Z,76.41
2023-04-03T23:17:18.752Z,76.38
2023-04-03T23:19:50.690Z,76.67
2023-04-03T23:22:22.761Z,76.57
2023-04-03T23:24:54.823Z,76.92
2023-04-03T23:27:27.081Z,77.16
2023-04-03T23:29:59.194Z,77.11
2023-04-03T23:32:31.521Z,77.55
2023-04-03T23:35:04.158Z,77.72
2023-04-03T23:37:36.396Z,78.02
2023-04-03T23:40:10.094Z,78.19
2023-04-03T23:42:43.083Z,78.33
2023-04-03T23:45:15.283Z,78.56
2023-04-03T23:47:47.263Z,78.58
2023-04-03T23:50:19.425Z,78.31
2023-04-03T23:52:51.399Z,78.20
2023-04-03T23:55:23.695Z,77.76
2023-04-03T23:57:56.367Z,77.37
